全部
Casino Airport (Casino, New South Wales) CSI 天气
|
Casino, New South Wales (CSI / YCAS)
晴天
静风 |
|
15 °C |
There is no TAF data available at CSI. Showing TAF data for YLIS (13 mi E).
LSY终端机场天气预报(CSI无数据)
| Here is the undecoded forecast: 2026/09/04 10:33 YLIS 041033Z 0410/0420 35008KT CAVOK FM041100 VRB03KT 0300 FG BKN001 PROB40 0410/0411 0300 FG RMK T 16 14 13 13 Q 1020 1021 1020 1020 |
CSI近期METAR历史数据
| Date | Time (AEST) | Flight Rules | Wind Dir. | Speed | Type | Height AGL (ft) | Visibility | Temp (°C) | Temp (°F) | Dew Point (°C) | Dew Point (°F) | Rel. Humid. | Pressure | Density Altitude | Remarks |
|---|---|---|---|---|---|---|---|---|---|---|---|---|---|---|---|
| 04-九月 | 21:00 | n/a | 190° | 1 kt | Missing | 15° | 59° | 15° | 59° | 100% | 1021 mb | -145 ft | |||
| 04-九月 | 20:00 | n/a | 190° | 3 kt | Missing | 16° | 60° | 15° | 59° | 94% | 1020 mb | 4 ft | |||
| 04-九月 | 19:00 | n/a | Calm | Missing | 17° | 62° | 16° | 60° | 94% | 1019 mb | 154 ft | ||||
| 04-九月 | 18:00 | n/a | 130° | 5 kt | Missing | 19° | 66° | 16° | 60° | 83% | 1018 mb | 423 ft | |||
| 04-九月 | 17:00 | n/a | 120° | 11 kt | Missing | 22° | 71° | 16° | 60° | 69% | 1018 mb | 783 ft | |||
| 04-九月 | 16:00 | n/a | 110° | 13 kt | Missing | 24° | 75° | 14° | 57° | 54% | 1017 mb | 1,053 ft | |||
| 04-九月 | 15:00 | n/a | 100° | 11 kt | Missing | 26° | 78° | 14° | 57° | 48% | 1017 mb | 1,293 ft | |||
| 04-九月 | 14:00 | n/a | 100° | 9 kt | Missing | 27° | 80° | 14° | 57° | 45% | 1017 mb | 1,413 ft | |||
| 04-九月 | 13:00 | n/a | 100° | 5 kt | Missing | 28° | 82° | 13° | 55° | 40% | 1018 mb | 1,503 ft | |||
| 04-九月 | 12:00 | n/a | 40° | 7 kt | Missing | 27° | 80° | 13° | 55° | 42% | 1019 mb | 1,354 ft | |||
| 04-九月 | 11:00 | n/a | 120° | 6 kt | Missing | 27° | 80° | 15° | 59° | 48% | 1020 mb | 1,324 ft | |||
| 04-九月 | 10:00 | n/a | 180° | 7 kt | Missing | 25° | 77° | 15° | 59° | 54% | 1021 mb | 1,055 ft | |||
| 04-九月 | 09:00 | n/a | 240° | 4 kt | Missing | 22° | 71° | 13° | 55° | 57% | 1021 mb | 695 ft | |||
| 04-九月 | 08:00 | n/a | 320° | 5 kt | Missing | 19° | 66° | 14° | 57° | 73% | 1021 mb | 335 ft | |||
| 04-九月 | 07:00 | n/a | 290° | 4 kt | Missing | 14° | 57° | 12° | 53° | 88% | 1020 mb | -236 ft | |||
| 04-九月 | 06:00 | n/a | 290° | 4 kt | Missing | 12° | 53° | 11° | 51° | 94% | 1019 mb | -446 ft | |||
| 04-九月 | 05:00 | n/a | 280° | 3 kt | Missing | 12° | 53° | 10° | 50° | 88% | 1019 mb | -446 ft | |||
| 04-九月 | 04:00 | n/a | 240° | 3 kt | Missing | 12° | 53° | 11° | 51° | 94% | 1018 mb | -417 ft | |||
| 04-九月 | 03:00 | n/a | Calm | Missing | 12° | 53° | 11° | 51° | 94% | 1018 mb | -417 ft | ||||
| 04-九月 | 02:00 | n/a | 160° | 1 kt | Missing | 15° | 59° | 11° | 51° | 77% | 1017 mb | -27 ft | |||
| 04-九月 | 01:00 | n/a | 290° | 3 kt | Missing | 14° | 57° | 11° | 51° | 82% | 1017 mb | -147 ft | |||
| 04-九月 | 00:00 | n/a | 260° | 5 kt | Missing | 17° | 62° | 12° | 53° | 72% | 1017 mb | 213 ft | |||
| 03-九月 | 23:00 | n/a | 320° | 5 kt | Missing | 18° | 64° | 12° | 53° | 68% | 1017 mb | 333 ft | |||
| 03-九月 | 22:00 | n/a | Calm | Missing | 17° | 62° | 11° | 51° | 68% | 1016 mb | 243 ft |
登录
| 您的浏览器不支持. 升级您的浏览器 |
